sensor_id;sensor_type;location;lat;lon;timestamp;P1;durP1;ratioP1;P2;durP2;ratioP2
19414;SDS011;9843;48.882;12.592;2023-07-02T00:02:13;1.10;;;1.10;;
19414;SDS011;9843;48.882;12.592;2023-07-02T00:04:41;1.60;;;1.60;;
19414;SDS011;9843;48.882;12.592;2023-07-02T00:07:08;1.43;;;1.33;;
19414;SDS011;9843;48.882;12.592;2023-07-02T00:09:35;1.70;;;1.60;;
19414;SDS011;9843;48.882;12.592;2023-07-02T00:12:02;1.33;;;1.30;;
19414;SDS011;9843;48.882;12.592;2023-07-02T00:14:29;1.03;;;1.03;;
19414;SDS011;9843;48.882;12.592;2023-07-02T00:16:58;1.73;;;1.63;;
19414;SDS011;9843;48.882;12.592;2023-07-02T00:19:25;3.90;;;1.80;;
19414;SDS011;9843;48.882;12.592;2023-07-02T00:21:52;1.40;;;1.30;;
19414;SDS011;9843;48.882;12.592;2023-07-02T00:24:20;1.03;;;1.03;;
19414;SDS011;9843;48.882;12.592;2023-07-02T00:26:47;1.03;;;1.03;;
19414;SDS011;9843;48.882;12.592;2023-07-02T00:29:14;1.40;;;1.30;;
19414;SDS011;9843;48.882;12.592;2023-07-02T00:31:41;1.20;;;1.20;;
19414;SDS011;9843;48.882;12.592;2023-07-02T00:34:09;1.00;;;1.00;;
19414;SDS011;9843;48.882;12.592;2023-07-02T00:36:36;1.37;;;1.27;;
19414;SDS011;9843;48.882;12.592;2023-07-02T00:39:03;1.13;;;1.13;;
19414;SDS011;9843;48.882;12.592;2023-07-02T00:41:30;1.37;;;1.27;;
19414;SDS011;9843;48.882;12.592;2023-07-02T00:43:57;1.37;;;1.30;;
19414;SDS011;9843;48.882;12.592;2023-07-02T00:46:26;1.50;;;1.40;;
19414;SDS011;9843;48.882;12.592;2023-07-02T00:48:53;1.40;;;1.30;;
19414;SDS011;9843;48.882;12.592;2023-07-02T00:51:22;1.30;;;1.20;;
19414;SDS011;9843;48.882;12.592;2023-07-02T00:53:50;1.80;;;1.50;;
19414;SDS011;9843;48.882;12.592;2023-07-02T00:56:18;1.40;;;1.30;;
19414;SDS011;9843;48.882;12.592;2023-07-02T00:58:45;2.33;;;2.13;;
19414;SDS011;9843;48.882;12.592;2023-07-02T01:01:14;1.47;;;1.37;;
19414;SDS011;9843;48.882;12.592;2023-07-02T01:03:49;2.83;;;1.60;;
19414;SDS011;9843;48.882;12.592;2023-07-02T01:06:18;1.33;;;1.23;;
19414;SDS011;9843;48.882;12.592;2023-07-02T01:08:51;3.03;;;1.80;;
19414;SDS011;9843;48.882;12.592;2023-07-02T01:11:18;1.33;;;1.20;;
19414;SDS011;9843;48.882;12.592;2023-07-02T01:13:46;2.30;;;1.80;;
19414;SDS011;9843;48.882;12.592;2023-07-02T01:16:14;3.30;;;3.10;;
19414;SDS011;9843;48.882;12.592;2023-07-02T01:18:41;2.13;;;2.00;;
19414;SDS011;9843;48.882;12.592;2023-07-02T01:21:10;1.70;;;1.60;;
19414;SDS011;9843;48.882;12.592;2023-07-02T01:23:37;1.50;;;1.40;;
19414;SDS011;9843;48.882;12.592;2023-07-02T01:26:04;1.83;;;1.73;;
19414;SDS011;9843;48.882;12.592;2023-07-02T01:28:34;6.07;;;2.23;;
19414;SDS011;9843;48.882;12.592;2023-07-02T01:31:02;1.80;;;1.70;;
19414;SDS011;9843;48.882;12.592;2023-07-02T01:33:29;2.10;;;1.90;;
19414;SDS011;9843;48.882;12.592;2023-07-02T01:35:56;3.33;;;2.63;;
19414;SDS011;9843;48.882;12.592;2023-07-02T01:38:25;8.50;;;2.17;;
19414;SDS011;9843;48.882;12.592;2023-07-02T01:40:52;4.47;;;2.17;;
19414;SDS011;9843;48.882;12.592;2023-07-02T01:43:20;2.80;;;2.60;;
19414;SDS011;9843;48.882;12.592;2023-07-02T01:45:47;4.23;;;2.33;;
19414;SDS011;9843;48.882;12.592;2023-07-02T01:48:14;3.03;;;2.47;;
19414;SDS011;9843;48.882;12.592;2023-07-02T01:50:41;4.00;;;2.50;;
19414;SDS011;9843;48.882;12.592;2023-07-02T01:53:08;2.83;;;1.90;;
19414;SDS011;9843;48.882;12.592;2023-07-02T01:55:36;3.23;;;2.57;;
19414;SDS011;9843;48.882;12.592;2023-07-02T01:58:03;2.47;;;2.03;;
19414;SDS011;9843;48.882;12.592;2023-07-02T02:00:30;2.43;;;2.23;;
19414;SDS011;9843;48.882;12.592;2023-07-02T02:02:57;3.53;;;2.43;;
19414;SDS011;9843;48.882;12.592;2023-07-02T02:05:24;2.43;;;2.23;;
19414;SDS011;9843;48.882;12.592;2023-07-02T02:07:51;4.80;;;2.40;;
19414;SDS011;9843;48.882;12.592;2023-07-02T02:10:18;3.13;;;1.90;;
19414;SDS011;9843;48.882;12.592;2023-07-02T02:12:47;2.73;;;2.53;;
19414;SDS011;9843;48.882;12.592;2023-07-02T02:15:14;3.53;;;2.40;;
19414;SDS011;9843;48.882;12.592;2023-07-02T02:17:41;3.00;;;2.77;;
19414;SDS011;9843;48.882;12.592;2023-07-02T02:20:08;2.90;;;2.70;;
19414;SDS011;9843;48.882;12.592;2023-07-02T02:22:35;3.23;;;2.70;;
19414;SDS011;9843;48.882;12.592;2023-07-02T02:25:03;2.20;;;2.00;;
19414;SDS011;9843;48.882;12.592;2023-07-02T02:27:30;2.90;;;2.27;;
19414;SDS011;9843;48.882;12.592;2023-07-02T02:29:59;2.57;;;2.37;;
19414;SDS011;9843;48.882;12.592;2023-07-02T02:32:26;2.80;;;2.53;;
19414;SDS011;9843;48.882;12.592;2023-07-02T02:34:53;5.47;;;2.70;;
19414;SDS011;9843;48.882;12.592;2023-07-02T02:37:20;3.70;;;3.40;;
19414;SDS011;9843;48.882;12.592;2023-07-02T02:39:48;3.27;;;2.47;;
19414;SDS011;9843;48.882;12.592;2023-07-02T02:42:15;3.27;;;3.07;;
19414;SDS011;9843;48.882;12.592;2023-07-02T02:44:42;3.87;;;2.50;;
19414;SDS011;9843;48.882;12.592;2023-07-02T02:47:11;5.20;;;2.93;;
19414;SDS011;9843;48.882;12.592;2023-07-02T02:49:38;3.00;;;2.73;;
19414;SDS011;9843;48.882;12.592;2023-07-02T02:52:05;4.60;;;2.90;;
19414;SDS011;9843;48.882;12.592;2023-07-02T02:54:32;2.47;;;2.27;;
19414;SDS011;9843;48.882;12.592;2023-07-02T02:56:59;2.73;;;2.33;;
19414;SDS011;9843;48.882;12.592;2023-07-02T02:59:27;4.67;;;3.23;;
19414;SDS011;9843;48.882;12.592;2023-07-02T03:01:54;3.43;;;2.60;;
19414;SDS011;9843;48.882;12.592;2023-07-02T03:04:22;2.67;;;2.47;;
19414;SDS011;9843;48.882;12.592;2023-07-02T03:06:50;4.00;;;2.97;;
19414;SDS011;9843;48.882;12.592;2023-07-02T03:09:17;7.83;;;2.90;;
19414;SDS011;9843;48.882;12.592;2023-07-02T03:11:45;5.07;;;3.50;;
19414;SDS011;9843;48.882;12.592;2023-07-02T03:14:12;2.90;;;2.70;;
19414;SDS011;9843;48.882;12.592;2023-07-02T03:16:39;4.17;;;2.77;;
19414;SDS011;9843;48.882;12.592;2023-07-02T03:19:06;3.70;;;3.37;;
19414;SDS011;9843;48.882;12.592;2023-07-02T03:21:34;4.63;;;2.80;;
19414;SDS011;9843;48.882;12.592;2023-07-02T03:24:01;3.27;;;3.07;;
19414;SDS011;9843;48.882;12.592;2023-07-02T03:26:28;3.33;;;2.90;;
19414;SDS011;9843;48.882;12.592;2023-07-02T03:28:55;2.97;;;2.67;;
19414;SDS011;9843;48.882;12.592;2023-07-02T03:31:22;12.63;;;3.50;;
19414;SDS011;9843;48.882;12.592;2023-07-02T03:33:49;2.87;;;2.67;;
19414;SDS011;9843;48.882;12.592;2023-07-02T03:36:16;3.10;;;2.80;;
19414;SDS011;9843;48.882;12.592;2023-07-02T03:38:45;4.50;;;4.10;;
19414;SDS011;9843;48.882;12.592;2023-07-02T03:41:12;4.53;;;2.83;;
19414;SDS011;9843;48.882;12.592;2023-07-02T03:43:39;4.87;;;2.87;;
19414;SDS011;9843;48.882;12.592;2023-07-02T03:46:06;3.30;;;2.73;;
19414;SDS011;9843;48.882;12.592;2023-07-02T03:48:33;3.67;;;3.07;;
19414;SDS011;9843;48.882;12.592;2023-07-02T03:51:01;3.50;;;2.20;;
19414;SDS011;9843;48.882;12.592;2023-07-02T03:53:28;2.97;;;2.67;;
19414;SDS011;9843;48.882;12.592;2023-07-02T03:55:56;4.47;;;2.57;;
19414;SDS011;9843;48.882;12.592;2023-07-02T03:58:23;3.23;;;3.00;;
19414;SDS011;9843;48.882;12.592;2023-07-02T04:00:50;3.13;;;2.83;;
19414;SDS011;9843;48.882;12.592;2023-07-02T04:03:17;3.10;;;2.33;;
19414;SDS011;9843;48.882;12.592;2023-07-02T04:05:45;5.70;;;3.00;;
19414;SDS011;9843;48.882;12.592;2023-07-02T04:08:12;3.13;;;2.77;;
19414;SDS011;9843;48.882;12.592;2023-07-02T04:10:39;2.90;;;2.70;;
19414;SDS011;9843;48.882;12.592;2023-07-02T04:13:07;3.40;;;2.40;;
19414;SDS011;9843;48.882;12.592;2023-07-02T04:15:35;3.17;;;2.67;;
19414;SDS011;9843;48.882;12.592;2023-07-02T04:18:02;3.87;;;2.27;;
19414;SDS011;9843;48.882;12.592;2023-07-02T04:20:29;3.43;;;2.60;;
19414;SDS011;9843;48.882;12.592;2023-07-02T04:22:56;3.20;;;2.90;;
19414;SDS011;9843;48.882;12.592;2023-07-02T04:25:23;2.90;;;2.60;;
19414;SDS011;9843;48.882;12.592;2023-07-02T04:27:50;2.67;;;2.47;;
19414;SDS011;9843;48.882;12.592;2023-07-02T04:30:22;3.20;;;2.23;;
19414;SDS011;9843;48.882;12.592;2023-07-02T04:32:49;3.80;;;3.40;;
19414;SDS011;9843;48.882;12.592;2023-07-02T04:35:17;2.63;;;2.43;;
19414;SDS011;9843;48.882;12.592;2023-07-02T04:37:44;2.47;;;2.27;;
19414;SDS011;9843;48.882;12.592;2023-07-02T04:40:11;2.50;;;2.30;;
19414;SDS011;9843;48.882;12.592;2023-07-02T04:42:40;2.63;;;2.23;;
19414;SDS011;9843;48.882;12.592;2023-07-02T04:45:12;4.50;;;3.40;;
19414;SDS011;9843;48.882;12.592;2023-07-02T04:47:42;5.70;;;2.03;;
19414;SDS011;9843;48.882;12.592;2023-07-02T04:50:09;2.63;;;2.43;;
19414;SDS011;9843;48.882;12.592;2023-07-02T04:52:36;6.90;;;2.50;;
19414;SDS011;9843;48.882;12.592;2023-07-02T04:55:04;3.67;;;2.77;;
19414;SDS011;9843;48.882;12.592;2023-07-02T04:57:31;4.60;;;3.43;;
19414;SDS011;9843;48.882;12.592;2023-07-02T04:59:58;3.07;;;2.67;;
19414;SDS011;9843;48.882;12.592;2023-07-02T05:02:25;4.57;;;3.53;;
19414;SDS011;9843;48.882;12.592;2023-07-02T05:04:54;2.37;;;2.17;;
19414;SDS011;9843;48.882;12.592;2023-07-02T05:07:21;2.83;;;2.63;;
19414;SDS011;9843;48.882;12.592;2023-07-02T05:09:48;2.53;;;2.33;;
19414;SDS011;9843;48.882;12.592;2023-07-02T05:12:17;2.77;;;2.13;;
19414;SDS011;9843;48.882;12.592;2023-07-02T05:14:44;2.80;;;2.53;;
19414;SDS011;9843;48.882;12.592;2023-07-02T05:17:11;3.07;;;2.67;;
19414;SDS011;9843;48.882;12.592;2023-07-02T05:19:39;2.57;;;2.27;;
19414;SDS011;9843;48.882;12.592;2023-07-02T05:22:08;2.80;;;2.53;;
19414;SDS011;9843;48.882;12.592;2023-07-02T05:24:35;5.13;;;2.70;;
19414;SDS011;9843;48.882;12.592;2023-07-02T05:27:02;4.73;;;2.40;;
19414;SDS011;9843;48.882;12.592;2023-07-02T05:29:29;2.40;;;2.20;;
19414;SDS011;9843;48.882;12.592;2023-07-02T05:31:56;4.67;;;2.20;;
19414;SDS011;9843;48.882;12.592;2023-07-02T05:34:24;2.43;;;2.23;;
19414;SDS011;9843;48.882;12.592;2023-07-02T05:36:51;4.40;;;2.20;;
19414;SDS011;9843;48.882;12.592;2023-07-02T05:39:19;2.30;;;2.10;;
19414;SDS011;9843;48.882;12.592;2023-07-02T05:41:47;4.53;;;2.47;;
19414;SDS011;9843;48.882;12.592;2023-07-02T05:44:14;2.80;;;2.33;;
19414;SDS011;9843;48.882;12.592;2023-07-02T05:46:41;2.03;;;1.77;;
19414;SDS011;9843;48.882;12.592;2023-07-02T05:49:08;5.13;;;2.23;;
19414;SDS011;9843;48.882;12.592;2023-07-02T05:51:35;5.97;;;2.50;;
19414;SDS011;9843;48.882;12.592;2023-07-02T05:54:02;2.60;;;2.17;;
19414;SDS011;9843;48.882;12.592;2023-07-02T05:56:31;4.00;;;2.43;;
19414;SDS011;9843;48.882;12.592;2023-07-02T05:58:58;3.27;;;2.57;;
19414;SDS011;9843;48.882;12.592;2023-07-02T06:01:25;5.33;;;3.20;;
19414;SDS011;9843;48.882;12.592;2023-07-02T06:03:52;3.90;;;1.93;;
19414;SDS011;9843;48.882;12.592;2023-07-02T06:06:20;9.40;;;2.70;;
19414;SDS011;9843;48.882;12.592;2023-07-02T06:08:49;2.60;;;2.33;;
19414;SDS011;9843;48.882;12.592;2023-07-02T06:11:16;3.40;;;2.33;;
19414;SDS011;9843;48.882;12.592;2023-07-02T06:13:44;2.37;;;1.93;;
19414;SDS011;9843;48.882;12.592;2023-07-02T06:16:11;3.60;;;1.97;;
19414;SDS011;9843;48.882;12.592;2023-07-02T06:18:38;3.07;;;2.10;;
19414;SDS011;9843;48.882;12.592;2023-07-02T06:21:06;1.63;;;1.47;;
19414;SDS011;9843;48.882;12.592;2023-07-02T06:23:39;4.83;;;2.10;;
19414;SDS011;9843;48.882;12.592;2023-07-02T06:26:06;2.23;;;2.03;;
19414;SDS011;9843;48.882;12.592;2023-07-02T06:28:33;3.87;;;2.03;;
19414;SDS011;9843;48.882;12.592;2023-07-02T06:31:01;5.83;;;1.83;;
19414;SDS011;9843;48.882;12.592;2023-07-02T06:33:28;1.83;;;1.60;;
19414;SDS011;9843;48.882;12.592;2023-07-02T06:35:55;2.73;;;2.17;;
19414;SDS011;9843;48.882;12.592;2023-07-02T06:38:23;3.33;;;2.17;;
19414;SDS011;9843;48.882;12.592;2023-07-02T06:40:50;3.10;;;2.00;;
19414;SDS011;9843;48.882;12.592;2023-07-02T06:43:17;2.90;;;2.60;;
19414;SDS011;9843;48.882;12.592;2023-07-02T06:45:44;2.60;;;1.97;;
19414;SDS011;9843;48.882;12.592;2023-07-02T06:48:12;4.60;;;2.30;;
19414;SDS011;9843;48.882;12.592;2023-07-02T06:50:43;2.77;;;2.47;;
19414;SDS011;9843;48.882;12.592;2023-07-02T06:53:10;3.70;;;2.53;;
19414;SDS011;9843;48.882;12.592;2023-07-02T06:55:37;8.83;;;2.70;;
19414;SDS011;9843;48.882;12.592;2023-07-02T06:58:04;6.73;;;2.70;;
19414;SDS011;9843;48.882;12.592;2023-07-02T07:00:32;2.20;;;1.83;;
19414;SDS011;9843;48.882;12.592;2023-07-02T07:03:00;5.40;;;3.23;;
19414;SDS011;9843;48.882;12.592;2023-07-02T07:05:28;2.23;;;2.00;;
19414;SDS011;9843;48.882;12.592;2023-07-02T07:07:55;3.80;;;2.13;;
19414;SDS011;9843;48.882;12.592;2023-07-02T07:10:22;3.83;;;1.93;;
19414;SDS011;9843;48.882;12.592;2023-07-02T07:12:49;2.80;;;2.27;;
19414;SDS011;9843;48.882;12.592;2023-07-02T07:15:16;3.40;;;3.07;;
19414;SDS011;9843;48.882;12.592;2023-07-02T07:17:44;7.00;;;2.97;;
19414;SDS011;9843;48.882;12.592;2023-07-02T07:20:11;3.43;;;3.07;;
19414;SDS011;9843;48.882;12.592;2023-07-02T07:22:40;3.70;;;2.30;;
19414;SDS011;9843;48.882;12.592;2023-07-02T07:25:08;3.23;;;2.50;;
19414;SDS011;9843;48.882;12.592;2023-07-02T07:27:35;3.23;;;2.50;;
19414;SDS011;9843;48.882;12.592;2023-07-02T07:30:02;5.70;;;3.13;;
19414;SDS011;9843;48.882;12.592;2023-07-02T07:32:29;6.50;;;3.10;;
19414;SDS011;9843;48.882;12.592;2023-07-02T07:34:56;2.10;;;1.90;;
19414;SDS011;9843;48.882;12.592;2023-07-02T07:37:23;3.83;;;2.60;;
19414;SDS011;9843;48.882;12.592;2023-07-02T07:39:52;4.73;;;2.73;;
19414;SDS011;9843;48.882;12.592;2023-07-02T07:42:19;3.13;;;2.53;;
19414;SDS011;9843;48.882;12.592;2023-07-02T07:44:46;6.43;;;3.03;;
19414;SDS011;9843;48.882;12.592;2023-07-02T07:47:13;5.83;;;3.70;;
19414;SDS011;9843;48.882;12.592;2023-07-02T07:49:40;7.17;;;3.93;;
19414;SDS011;9843;48.882;12.592;2023-07-02T07:52:07;9.50;;;3.80;;
19414;SDS011;9843;48.882;12.592;2023-07-02T07:54:34;5.30;;;3.17;;
19414;SDS011;9843;48.882;12.592;2023-07-02T07:57:03;13.23;;;5.40;;
19414;SDS011;9843;48.882;12.592;2023-07-02T07:59:31;5.83;;;4.27;;
19414;SDS011;9843;48.882;12.592;2023-07-02T08:01:58;9.63;;;4.00;;
19414;SDS011;9843;48.882;12.592;2023-07-02T08:04:25;9.60;;;5.93;;
19414;SDS011;9843;48.882;12.592;2023-07-02T08:06:52;8.60;;;5.03;;
19414;SDS011;9843;48.882;12.592;2023-07-02T08:09:19;12.07;;;5.43;;
19414;SDS011;9843;48.882;12.592;2023-07-02T08:11:46;8.23;;;4.03;;
19414;SDS011;9843;48.882;12.592;2023-07-02T08:14:15;6.20;;;3.50;;
19414;SDS011;9843;48.882;12.592;2023-07-02T08:16:42;4.30;;;3.20;;
19414;SDS011;9843;48.882;12.592;2023-07-02T08:19:10;9.43;;;5.97;;
19414;SDS011;9843;48.882;12.592;2023-07-02T08:21:37;7.63;;;5.97;;
19414;SDS011;9843;48.882;12.592;2023-07-02T08:24:04;8.57;;;4.70;;
19414;SDS011;9843;48.882;12.592;2023-07-02T08:26:32;8.17;;;5.67;;
19414;SDS011;9843;48.882;12.592;2023-07-02T08:28:59;6.10;;;4.23;;
19414;SDS011;9843;48.882;12.592;2023-07-02T08:31:28;8.53;;;5.67;;
19414;SDS011;9843;48.882;12.592;2023-07-02T08:33:55;7.63;;;5.60;;
19414;SDS011;9843;48.882;12.592;2023-07-02T08:36:22;13.20;;;5.70;;
19414;SDS011;9843;48.882;12.592;2023-07-02T08:38:49;7.47;;;4.90;;
19414;SDS011;9843;48.882;12.592;2023-07-02T08:41:16;8.37;;;4.57;;
19414;SDS011;9843;48.882;12.592;2023-07-02T08:43:43;11.20;;;5.93;;
19414;SDS011;9843;48.882;12.592;2023-07-02T08:46:10;13.10;;;5.80;;
19414;SDS011;9843;48.882;12.592;2023-07-02T08:48:39;10.10;;;6.67;;
19414;SDS011;9843;48.882;12.592;2023-07-02T08:51:06;7.00;;;5.10;;
19414;SDS011;9843;48.882;12.592;2023-07-02T08:53:33;10.73;;;6.27;;
19414;SDS011;9843;48.882;12.592;2023-07-02T08:56:00;8.47;;;5.27;;
19414;SDS011;9843;48.882;12.592;2023-07-02T08:58:27;12.23;;;6.33;;
19414;SDS011;9843;48.882;12.592;2023-07-02T09:01:04;9.77;;;6.60;;
19414;SDS011;9843;48.882;12.592;2023-07-02T09:03:31;16.80;;;7.67;;
19414;SDS011;9843;48.882;12.592;2023-07-02T09:05:59;9.63;;;5.83;;
19414;SDS011;9843;48.882;12.592;2023-07-02T09:08:27;9.37;;;5.47;;
19414;SDS011;9843;48.882;12.592;2023-07-02T09:10:55;7.63;;;5.53;;
19414;SDS011;9843;48.882;12.592;2023-07-02T09:13:31;7.90;;;5.50;;
19414;SDS011;9843;48.882;12.592;2023-07-02T09:15:58;8.70;;;5.50;;
19414;SDS011;9843;48.882;12.592;2023-07-02T09:18:25;10.30;;;5.40;;
19414;SDS011;9843;48.882;12.592;2023-07-02T09:20:54;9.40;;;5.17;;
19414;SDS011;9843;48.882;12.592;2023-07-02T09:23:22;8.60;;;4.70;;
19414;SDS011;9843;48.882;12.592;2023-07-02T09:25:49;7.83;;;5.23;;
19414;SDS011;9843;48.882;12.592;2023-07-02T09:28:17;14.30;;;7.40;;
19414;SDS011;9843;48.882;12.592;2023-07-02T09:30:51;16.02;;;5.47;;
19414;SDS011;9843;48.882;12.592;2023-07-02T09:33:18;13.15;;;5.20;;
19414;SDS011;9843;48.882;12.592;2023-07-02T09:35:45;17.17;;;5.43;;
19414;SDS011;9843;48.882;12.592;2023-07-02T09:38:13;9.48;;;6.20;;
19414;SDS011;9843;48.882;12.592;2023-07-02T09:40:44;11.05;;;5.28;;
19414;SDS011;9843;48.882;12.592;2023-07-02T09:43:12;10.40;;;5.55;;
19414;SDS011;9843;48.882;12.592;2023-07-02T09:45:41;10.38;;;6.43;;
19414;SDS011;9843;48.882;12.592;2023-07-02T09:48:09;12.50;;;6.70;;
19414;SDS011;9843;48.882;12.592;2023-07-02T09:50:37;11.85;;;6.45;;
19414;SDS011;9843;48.882;12.592;2023-07-02T09:53:05;10.70;;;6.15;;
19414;SDS011;9843;48.882;12.592;2023-07-02T09:55:32;13.95;;;6.30;;
19414;SDS011;9843;48.882;12.592;2023-07-02T09:58:01;10.73;;;6.68;;
19414;SDS011;9843;48.882;12.592;2023-07-02T10:00:28;11.25;;;7.50;;
19414;SDS011;9843;48.882;12.592;2023-07-02T10:02:55;10.60;;;6.03;;
19414;SDS011;9843;48.882;12.592;2023-07-02T10:05:26;9.98;;;6.55;;
19414;SDS011;9843;48.882;12.592;2023-07-02T10:07:53;11.73;;;7.30;;
19414;SDS011;9843;48.882;12.592;2023-07-02T10:10:30;10.52;;;6.97;;
19414;SDS011;9843;48.882;12.592;2023-07-02T10:12:57;9.98;;;6.47;;
19414;SDS011;9843;48.882;12.592;2023-07-02T10:15:26;12.90;;;7.75;;
19414;SDS011;9843;48.882;12.592;2023-07-02T10:17:54;12.27;;;7.28;;
19414;SDS011;9843;48.882;12.592;2023-07-02T10:20:30;10.73;;;6.80;;
19414;SDS011;9843;48.882;12.592;2023-07-02T10:22:58;12.18;;;7.25;;
19414;SDS011;9843;48.882;12.592;2023-07-02T10:25:27;16.10;;;9.43;;
19414;SDS011;9843;48.882;12.592;2023-07-02T10:27:54;17.08;;;8.50;;
19414;SDS011;9843;48.882;12.592;2023-07-02T10:30:31;16.10;;;7.38;;
19414;SDS011;9843;48.882;12.592;2023-07-02T10:33:08;13.88;;;8.60;;
19414;SDS011;9843;48.882;12.592;2023-07-02T10:35:35;10.95;;;7.18;;
19414;SDS011;9843;48.882;12.592;2023-07-02T10:38:03;15.23;;;8.30;;
19414;SDS011;9843;48.882;12.592;2023-07-02T10:40:31;15.98;;;8.90;;
19414;SDS011;9843;48.882;12.592;2023-07-02T10:42:59;12.13;;;7.97;;
19414;SDS011;9843;48.882;12.592;2023-07-02T10:45:34;15.75;;;8.30;;
19414;SDS011;9843;48.882;12.592;2023-07-02T10:48:01;15.23;;;8.07;;
19414;SDS011;9843;48.882;12.592;2023-07-02T10:50:29;13.18;;;7.90;;
19414;SDS011;9843;48.882;12.592;2023-07-02T10:52:56;14.95;;;7.93;;
19414;SDS011;9843;48.882;12.592;2023-07-02T10:55:24;9.63;;;6.68;;
19414;SDS011;9843;48.882;12.592;2023-07-02T10:58:02;11.68;;;8.30;;
19414;SDS011;9843;48.882;12.592;2023-07-02T11:00:29;15.13;;;6.93;;
19414;SDS011;9843;48.882;12.592;2023-07-02T11:02:58;16.17;;;7.70;;
19414;SDS011;9843;48.882;12.592;2023-07-02T11:05:25;9.23;;;6.25;;
19414;SDS011;9843;48.882;12.592;2023-07-02T11:07:52;12.30;;;6.50;;
19414;SDS011;9843;48.882;12.592;2023-07-02T11:10:22;9.63;;;6.65;;
19414;SDS011;9843;48.882;12.592;2023-07-02T11:12:50;9.60;;;6.07;;
19414;SDS011;9843;48.882;12.592;2023-07-02T11:15:17;12.43;;;8.15;;
19414;SDS011;9843;48.882;12.592;2023-07-02T11:17:44;10.70;;;7.85;;
19414;SDS011;9843;48.882;12.592;2023-07-02T11:20:13;12.38;;;6.78;;
19414;SDS011;9843;48.882;12.592;2023-07-02T11:22:41;10.73;;;7.88;;
19414;SDS011;9843;48.882;12.592;2023-07-02T11:25:09;11.73;;;7.22;;
19414;SDS011;9843;48.882;12.592;2023-07-02T11:27:36;11.60;;;7.75;;
19414;SDS011;9843;48.882;12.592;2023-07-02T11:30:03;10.10;;;7.32;;
19414;SDS011;9843;48.882;12.592;2023-07-02T11:32:31;12.30;;;7.65;;
19414;SDS011;9843;48.882;12.592;2023-07-02T11:34:58;12.25;;;7.47;;
19414;SDS011;9843;48.882;12.592;2023-07-02T11:37:26;10.75;;;7.28;;
19414;SDS011;9843;48.882;12.592;2023-07-02T11:39:53;12.27;;;7.57;;
19414;SDS011;9843;48.882;12.592;2023-07-02T11:42:20;11.60;;;7.25;;
19414;SDS011;9843;48.882;12.592;2023-07-02T11:44:47;18.52;;;7.95;;
19414;SDS011;9843;48.882;12.592;2023-07-02T11:47:14;11.82;;;6.35;;
19414;SDS011;9843;48.882;12.592;2023-07-02T11:49:41;12.88;;;7.43;;
19414;SDS011;9843;48.882;12.592;2023-07-02T11:52:08;13.52;;;8.02;;
19414;SDS011;9843;48.882;12.592;2023-07-02T11:54:38;12.35;;;8.25;;
19414;SDS011;9843;48.882;12.592;2023-07-02T11:57:05;12.75;;;8.30;;
19414;SDS011;9843;48.882;12.592;2023-07-02T11:59:33;11.82;;;7.70;;
19414;SDS011;9843;48.882;12.592;2023-07-02T12:02:01;9.75;;;7.20;;
19414;SDS011;9843;48.882;12.592;2023-07-02T12:04:28;8.90;;;6.88;;
19414;SDS011;9843;48.882;12.592;2023-07-02T12:06:55;13.20;;;7.72;;
19414;SDS011;9843;48.882;12.592;2023-07-02T12:09:22;11.10;;;7.72;;
19414;SDS011;9843;48.882;12.592;2023-07-02T12:11:52;13.20;;;8.05;;
19414;SDS011;9843;48.882;12.592;2023-07-02T12:14:19;13.48;;;8.13;;
19414;SDS011;9843;48.882;12.592;2023-07-02T12:16:46;14.68;;;7.78;;
19414;SDS011;9843;48.882;12.592;2023-07-02T12:19:13;9.85;;;7.00;;
19414;SDS011;9843;48.882;12.592;2023-07-02T12:21:40;13.68;;;7.53;;
19414;SDS011;9843;48.882;12.592;2023-07-02T12:24:08;13.32;;;9.13;;
19414;SDS011;9843;48.882;12.592;2023-07-02T12:26:36;14.38;;;8.13;;
19414;SDS011;9843;48.882;12.592;2023-07-02T12:29:04;9.43;;;6.63;;
19414;SDS011;9843;48.882;12.592;2023-07-02T12:31:31;12.00;;;8.57;;
19414;SDS011;9843;48.882;12.592;2023-07-02T12:33:58;18.40;;;8.68;;
19414;SDS011;9843;48.882;12.592;2023-07-02T12:36:25;13.23;;;8.27;;
19414;SDS011;9843;48.882;12.592;2023-07-02T12:38:52;15.95;;;8.77;;
19414;SDS011;9843;48.882;12.592;2023-07-02T12:41:19;13.57;;;9.70;;
19414;SDS011;9843;48.882;12.592;2023-07-02T12:43:46;10.35;;;7.03;;
19414;SDS011;9843;48.882;12.592;2023-07-02T12:46:15;11.98;;;8.25;;
19414;SDS011;9843;48.882;12.592;2023-07-02T12:48:42;15.80;;;7.75;;
19414;SDS011;9843;48.882;12.592;2023-07-02T12:51:09;13.95;;;7.57;;
19414;SDS011;9843;48.882;12.592;2023-07-02T12:53:36;11.68;;;7.47;;
19414;SDS011;9843;48.882;12.592;2023-07-02T12:56:03;11.30;;;7.13;;
19414;SDS011;9843;48.882;12.592;2023-07-02T12:58:30;10.07;;;6.47;;
19414;SDS011;9843;48.882;12.592;2023-07-02T13:00:57;11.60;;;7.13;;
19414;SDS011;9843;48.882;12.592;2023-07-02T13:03:26;10.23;;;7.35;;
19414;SDS011;9843;48.882;12.592;2023-07-02T13:05:53;14.55;;;7.95;;
19414;SDS011;9843;48.882;12.592;2023-07-02T13:08:20;10.73;;;6.47;;
19414;SDS011;9843;48.882;12.592;2023-07-02T13:10:47;12.25;;;7.20;;
19414;SDS011;9843;48.882;12.592;2023-07-02T13:13:14;9.27;;;7.07;;
19414;SDS011;9843;48.882;12.592;2023-07-02T13:15:41;12.60;;;7.85;;
19414;SDS011;9843;48.882;12.592;2023-07-02T13:18:08;12.48;;;8.48;;
19414;SDS011;9843;48.882;12.592;2023-07-02T13:20:36;15.23;;;7.60;;
19414;SDS011;9843;48.882;12.592;2023-07-02T13:23:03;11.48;;;7.90;;
19414;SDS011;9843;48.882;12.592;2023-07-02T13:25:30;11.45;;;6.82;;
19414;SDS011;9843;48.882;12.592;2023-07-02T13:27:57;13.23;;;7.82;;
19414;SDS011;9843;48.882;12.592;2023-07-02T13:30:25;10.55;;;6.45;;
19414;SDS011;9843;48.882;12.592;2023-07-02T13:32:53;10.43;;;7.35;;
19414;SDS011;9843;48.882;12.592;2023-07-02T13:35:20;12.60;;;7.32;;
19414;SDS011;9843;48.882;12.592;2023-07-02T13:37:49;14.05;;;7.75;;
19414;SDS011;9843;48.882;12.592;2023-07-02T13:40:16;11.50;;;7.22;;
19414;SDS011;9843;48.882;12.592;2023-07-02T13:42:43;13.77;;;7.93;;
19414;SDS011;9843;48.882;12.592;2023-07-02T13:45:10;9.98;;;5.75;;
19414;SDS011;9843;48.882;12.592;2023-07-02T13:47:37;8.90;;;7.30;;
19414;SDS011;9843;48.882;12.592;2023-07-02T13:50:05;8.35;;;5.97;;
19414;SDS011;9843;48.882;12.592;2023-07-02T13:52:32;9.65;;;7.22;;
19414;SDS011;9843;48.882;12.592;2023-07-02T13:55:00;8.55;;;5.88;;
19414;SDS011;9843;48.882;12.592;2023-07-02T13:57:27;26.58;;;8.80;;
19414;SDS011;9843;48.882;12.592;2023-07-02T13:59:55;10.57;;;6.88;;
19414;SDS011;9843;48.882;12.592;2023-07-02T14:02:23;10.48;;;7.28;;
19414;SDS011;9843;48.882;12.592;2023-07-02T14:04:50;12.27;;;7.68;;
19414;SDS011;9843;48.882;12.592;2023-07-02T14:07:17;9.63;;;6.22;;
19414;SDS011;9843;48.882;12.592;2023-07-02T14:09:44;11.00;;;7.45;;
19414;SDS011;9843;48.882;12.592;2023-07-02T14:12:11;14.60;;;6.30;;
19414;SDS011;9843;48.882;12.592;2023-07-02T14:14:38;10.65;;;6.32;;
19414;SDS011;9843;48.882;12.592;2023-07-02T14:17:07;17.13;;;8.00;;
19414;SDS011;9843;48.882;12.592;2023-07-02T14:19:34;11.70;;;7.88;;
19414;SDS011;9843;48.882;12.592;2023-07-02T14:22:01;12.55;;;6.60;;
19414;SDS011;9843;48.882;12.592;2023-07-02T14:24:28;13.93;;;7.38;;
19414;SDS011;9843;48.882;12.592;2023-07-02T14:26:56;8.38;;;6.40;;
19414;SDS011;9843;48.882;12.592;2023-07-02T14:29:23;10.40;;;6.72;;
19414;SDS011;9843;48.882;12.592;2023-07-02T14:31:50;9.88;;;5.65;;
19414;SDS011;9843;48.882;12.592;2023-07-02T14:34:18;10.90;;;7.32;;
19414;SDS011;9843;48.882;12.592;2023-07-02T14:36:46;13.55;;;7.95;;
19414;SDS011;9843;48.882;12.592;2023-07-02T14:39:13;14.00;;;8.32;;
19414;SDS011;9843;48.882;12.592;2023-07-02T14:41:40;10.48;;;5.80;;
19414;SDS011;9843;48.882;12.592;2023-07-02T14:44:07;9.73;;;6.40;;
19414;SDS011;9843;48.882;12.592;2023-07-02T14:46:34;12.52;;;6.75;;